createdAt,value
2022-11-04T00:02:26.313Z,4.77
2022-11-04T00:04:57.698Z,2.87
2022-11-04T00:07:45.374Z,2.77
2022-11-04T00:10:18.538Z,3.17
2022-11-04T00:12:48.085Z,3.10
2022-11-04T00:15:35.887Z,2.60
2022-11-04T00:18:07.002Z,3.63
2022-11-04T00:20:55.054Z,3.13
2022-11-04T00:23:42.830Z,4.33
2022-11-04T00:26:34.967Z,5.43
2022-11-04T00:29:07.134Z,3.13
2022-11-04T00:31:54.669Z,3.20
2022-11-04T00:34:25.726Z,3.73
2022-11-04T00:36:57.407Z,3.07
2022-11-04T00:39:28.514Z,2.97
2022-11-04T00:42:02.605Z,3.07
2022-11-04T00:44:33.991Z,2.50
2022-11-04T00:47:05.846Z,3.93
2022-11-04T00:49:36.897Z,4.87
2022-11-04T00:52:08.777Z,2.97
2022-11-04T00:54:40.608Z,3.10
2022-11-04T00:57:15.637Z,3.17
2022-11-04T00:59:47.664Z,2.70
2022-11-04T01:02:20.090Z,4.30
2022-11-04T01:04:52.146Z,2.73
2022-11-04T01:07:23.220Z,2.20
2022-11-04T01:09:53.955Z,2.53
2022-11-04T01:12:26.258Z,2.53
2022-11-04T01:14:56.892Z,2.67
2022-11-04T01:17:28.365Z,2.53
2022-11-04T01:19:59.450Z,3.07
2022-11-04T01:22:30.562Z,2.87
2022-11-04T01:25:01.977Z,2.83
2022-11-04T01:27:35.142Z,3.77
2022-11-04T01:30:06.772Z,2.50
2022-11-04T01:32:38.440Z,3.63
2022-11-04T01:35:10.455Z,3.73
2022-11-04T01:37:41.653Z,5.17
2022-11-04T01:40:14.851Z,3.97
2022-11-04T01:42:47.944Z,3.73
2022-11-04T01:45:22.550Z,3.57
2022-11-04T01:48:01.565Z,4.83
2022-11-04T01:50:36.332Z,5.17
2022-11-04T01:53:10.276Z,3.77
2022-11-04T01:55:48.169Z,6.50
2022-11-04T01:58:25.110Z,4.97
2022-11-04T02:00:56.649Z,5.20
2022-11-04T02:03:33.122Z,4.27
2022-11-04T02:06:05.775Z,4.83
2022-11-04T02:08:38.523Z,3.40
2022-11-04T02:11:10.772Z,4.80
2022-11-04T02:13:42.406Z,4.17
2022-11-04T02:16:23.518Z,4.23
2022-11-04T02:19:03.814Z,4.23
2022-11-04T02:21:53.772Z,3.30
2022-11-04T02:25:08.721Z,4.50
2022-11-04T02:27:56.458Z,4.20
2022-11-04T02:30:36.486Z,3.00
2022-11-04T02:33:24.917Z,3.23
2022-11-04T02:36:05.191Z,4.03
2022-11-04T02:38:48.517Z,3.07
2022-11-04T02:41:32.186Z,3.70
2022-11-04T02:44:12.409Z,3.40
2022-11-04T02:46:52.964Z,3.93
2022-11-04T02:49:30.764Z,3.00
2022-11-04T02:52:06.387Z,3.90
2022-11-04T02:54:41.766Z,6.23
2022-11-04T02:57:16.896Z,3.13
2022-11-04T02:59:52.110Z,3.87
2022-11-04T03:02:30.531Z,2.77
2022-11-04T03:05:03.359Z,3.93
2022-11-04T03:07:39.949Z,3.67
2022-11-04T03:10:18.374Z,2.93
2022-11-04T03:12:55.556Z,3.67
2022-11-04T03:15:35.830Z,3.00
2022-11-04T03:18:20.390Z,2.53
2022-11-04T03:20:53.931Z,3.13
2022-11-04T03:23:25.242Z,4.73
2022-11-04T03:26:00.998Z,3.20
2022-11-04T03:28:42.321Z,3.80
2022-11-04T03:31:20.845Z,3.80
2022-11-04T03:33:56.904Z,3.17
2022-11-04T03:36:29.797Z,3.73
2022-11-04T03:39:02.795Z,4.23
2022-11-04T03:41:38.983Z,3.00
2022-11-04T03:44:10.485Z,4.67
2022-11-04T03:46:41.962Z,2.50
2022-11-04T03:49:17.285Z,5.40
2022-11-04T03:51:48.304Z,3.47
2022-11-04T03:54:20.312Z,4.47
2022-11-04T03:57:22.947Z,3.20
2022-11-04T04:00:11.765Z,4.27
2022-11-04T04:03:02.794Z,4.27
2022-11-04T04:05:41.935Z,4.77
2022-11-04T04:08:22.824Z,2.73
2022-11-04T04:11:07.840Z,4.47
2022-11-04T04:13:47.841Z,3.53
2022-11-04T04:16:24.665Z,3.70
2022-11-04T04:19:01.557Z,2.50
2022-11-04T04:21:40.538Z,2.70
2022-11-04T04:24:30.668Z,2.03
2022-11-04T04:27:19.202Z,2.33
2022-11-04T04:29:52.446Z,3.07
2022-11-04T04:32:26.248Z,1.47
2022-11-04T04:35:18.287Z,1.77
2022-11-04T04:37:53.239Z,2.67
2022-11-04T04:40:48.801Z,2.50
2022-11-04T04:43:36.950Z,1.40
2022-11-04T04:46:09.277Z,1.63
2022-11-04T04:48:41.347Z,2.87
2022-11-04T04:51:12.489Z,1.97
2022-11-04T04:53:45.585Z,1.83
2022-11-04T04:56:16.729Z,2.33
2022-11-04T04:58:49.002Z,2.17
2022-11-04T05:01:20.326Z,2.70
2022-11-04T05:03:51.512Z,1.67
2022-11-04T05:06:23.627Z,2.60
2022-11-04T05:08:58.572Z,3.30
2022-11-04T05:11:29.599Z,3.33
2022-11-04T05:14:00.648Z,3.43
2022-11-04T05:16:35.411Z,6.80
2022-11-04T05:19:09.110Z,4.67
2022-11-04T05:21:40.552Z,2.80
2022-11-04T05:24:15.242Z,5.13
2022-11-04T05:26:46.887Z,3.73
2022-11-04T05:29:19.518Z,2.30
2022-11-04T05:31:50.642Z,3.27
2022-11-04T05:34:23.105Z,5.77
2022-11-04T05:36:54.606Z,5.20
2022-11-04T05:39:27.644Z,2.80
2022-11-04T05:41:59.736Z,2.97
2022-11-04T05:44:30.957Z,9.97
2022-11-04T05:47:02.036Z,3.90
2022-11-04T05:49:33.935Z,6.27
2022-11-04T05:52:04.956Z,3.10
2022-11-04T05:54:40.784Z,4.30
2022-11-04T05:57:13.936Z,4.00
2022-11-04T05:59:44.993Z,2.20
2022-11-04T06:02:18.624Z,1.80
2022-11-04T06:04:49.653Z,1.57
2022-11-04T06:07:20.664Z,3.40
2022-11-04T06:09:56.772Z,1.57
2022-11-04T06:12:27.851Z,2.83
2022-11-04T06:15:00.586Z,2.03
2022-11-04T06:17:32.325Z,2.23
2022-11-04T06:20:04.174Z,1.70
2022-11-04T06:22:35.961Z,1.80
2022-11-04T06:25:10.814Z,1.53
2022-11-04T06:27:42.316Z,1.53
2022-11-04T06:30:17.031Z,1.50
2022-11-04T06:32:48.649Z,1.53
2022-11-04T06:35:20.598Z,1.30
2022-11-04T06:37:52.163Z,1.20
2022-11-04T06:40:25.301Z,1.40
2022-11-04T06:42:56.417Z,1.47
2022-11-04T06:45:28.130Z,3.07
2022-11-04T06:47:59.018Z,5.33
2022-11-04T06:50:30.057Z,1.57
2022-11-04T06:53:01.115Z,1.87
2022-11-04T06:55:34.898Z,1.30
2022-11-04T06:58:06.716Z,1.43
2022-11-04T07:00:37.792Z,1.53
2022-11-04T07:03:09.540Z,1.50
2022-11-04T07:05:40.866Z,1.60
2022-11-04T07:08:12.422Z,2.93
2022-11-04T07:10:46.492Z,1.57
2022-11-04T07:13:19.194Z,1.90
2022-11-04T07:15:50.265Z,2.03
2022-11-04T07:18:22.412Z,1.80
2022-11-04T07:20:53.553Z,1.20
2022-11-04T07:23:25.421Z,1.37
2022-11-04T07:26:04.557Z,1.87
2022-11-04T07:28:35.818Z,1.43
2022-11-04T07:31:08.762Z,2.20
2022-11-04T07:33:39.856Z,1.67
2022-11-04T07:36:15.176Z,1.60
2022-11-04T07:38:48.125Z,1.53
2022-11-04T07:41:21.433Z,1.50
2022-11-04T07:43:54.797Z,1.30
2022-11-04T07:46:26.623Z,2.17
2022-11-04T07:49:01.806Z,1.40
2022-11-04T07:51:33.404Z,2.07
2022-11-04T07:54:05.514Z,1.73
2022-11-04T07:56:38.850Z,2.23
2022-11-04T07:59:10.190Z,3.07
2022-11-04T08:01:42.261Z,1.30
2022-11-04T08:04:13.670Z,1.40
2022-11-04T08:06:44.777Z,1.23
2022-11-04T08:09:15.896Z,2.13
2022-11-04T08:11:49.298Z,4.83
2022-11-04T08:14:20.323Z,2.00
2022-11-04T08:16:54.849Z,1.13
2022-11-04T08:19:29.302Z,1.03
2022-11-04T08:22:01.199Z,1.10
2022-11-04T08:24:32.537Z,2.10
2022-11-04T08:27:06.421Z,0.93
2022-11-04T08:29:38.387Z,1.40
2022-11-04T08:32:11.785Z,0.80
2022-11-04T08:34:43.074Z,0.73
2022-11-04T08:37:16.735Z,2.53
2022-11-04T08:39:49.521Z,1.73
2022-11-04T08:42:24.878Z,1.20
2022-11-04T08:44:56.298Z,1.97
2022-11-04T08:47:27.341Z,4.00
2022-11-04T08:49:59.218Z,1.47
2022-11-04T08:52:30.727Z,1.30
2022-11-04T08:55:01.960Z,3.40
2022-11-04T08:57:35.869Z,1.03
2022-11-04T09:00:08.025Z,3.40
2022-11-04T09:02:39.079Z,2.40
2022-11-04T09:05:11.746Z,1.03
2022-11-04T09:07:42.813Z,1.00
2022-11-04T09:10:15.847Z,1.63
2022-11-04T09:12:49.071Z,1.40
2022-11-04T09:15:20.661Z,2.10
2022-11-04T09:17:51.676Z,1.20
2022-11-04T09:20:22.775Z,1.40
2022-11-04T09:22:56.247Z,2.63
2022-11-04T09:25:27.500Z,1.17
2022-11-04T09:28:07.754Z,2.23
2022-11-04T09:30:39.633Z,0.80
2022-11-04T09:33:10.952Z,1.20
2022-11-04T09:35:42.180Z,0.97
2022-11-04T09:38:13.259Z,1.63
2022-11-04T09:40:46.820Z,0.97
2022-11-04T09:43:34.032Z,0.87
2022-11-04T09:46:07.528Z,0.70
2022-11-04T09:48:43.750Z,0.80
2022-11-04T09:51:47.943Z,0.97
2022-11-04T09:54:19.909Z,1.00
2022-11-04T09:56:54.555Z,0.90
2022-11-04T09:59:30.875Z,0.90
2022-11-04T10:02:28.195Z,0.70
2022-11-04T10:05:08.483Z,0.60
2022-11-04T10:07:57.696Z,0.87
2022-11-04T10:10:36.234Z,0.50
2022-11-04T10:13:21.342Z,1.03
2022-11-04T10:16:08.086Z,1.57
2022-11-04T10:19:07.979Z,1.37
2022-11-04T10:21:48.157Z,0.77
2022-11-04T10:24:33.974Z,0.80
2022-11-04T10:27:08.996Z,1.53
2022-11-04T10:29:44.842Z,0.80
2022-11-04T10:32:22.830Z,0.80
2022-11-04T10:35:01.409Z,0.70
2022-11-04T10:37:33.602Z,1.17
2022-11-04T10:40:20.353Z,0.70
2022-11-04T10:42:53.109Z,2.60
2022-11-04T10:45:30.212Z,1.00
2022-11-04T10:48:09.819Z,0.80
2022-11-04T10:50:45.597Z,3.47
2022-11-04T10:53:20.316Z,1.67
2022-11-04T10:56:02.371Z,0.80
2022-11-04T10:58:35.202Z,0.70
2022-11-04T11:01:27.115Z,0.60
2022-11-04T11:04:01.346Z,0.80
2022-11-04T11:06:33.429Z,0.50
2022-11-04T11:09:16.418Z,2.13
2022-11-04T11:11:49.982Z,0.70
2022-11-04T11:14:24.481Z,0.60
2022-11-04T11:16:55.760Z,0.53
2022-11-04T11:19:33.042Z,0.87
2022-11-04T11:22:05.461Z,2.40
2022-11-04T11:24:36.924Z,0.67
2022-11-04T11:27:23.510Z,0.70
2022-11-04T11:29:58.725Z,0.40
2022-11-04T11:32:36.498Z,1.13
2022-11-04T11:35:20.822Z,0.40
2022-11-04T11:37:53.186Z,0.50
2022-11-04T11:40:33.450Z,0.53
2022-11-04T11:43:05.190Z,1.67
2022-11-04T11:45:37.931Z,1.33
2022-11-04T11:48:32.789Z,0.77
2022-11-04T11:51:07.029Z,1.03
2022-11-04T11:53:42.115Z,1.33
2022-11-04T11:56:40.466Z,1.23
2022-11-04T12:02:33.560Z,0.40
2022-11-04T12:11:08.267Z,0.50
2022-11-04T12:13:45.224Z,0.77
2022-11-04T12:16:30.778Z,1.60
2022-11-04T12:19:29.021Z,0.90
2022-11-04T12:22:06.478Z,0.70
2022-11-04T12:24:49.612Z,2.40
2022-11-04T12:27:32.164Z,0.70
2022-11-04T12:30:11.393Z,0.87
2022-11-04T12:32:56.693Z,1.67
2022-11-04T12:35:55.669Z,0.60
2022-11-04T12:38:51.337Z,0.53
2022-11-04T12:41:52.453Z,0.87
2022-11-04T12:44:31.100Z,1.37
2022-11-04T12:47:12.140Z,1.00
2022-11-04T12:50:07.892Z,0.80
2022-11-04T12:52:56.546Z,2.23
2022-11-04T12:55:43.486Z,0.83
2022-11-04T12:58:32.420Z,1.33
2022-11-04T13:01:12.521Z,0.90
2022-11-04T13:03:53.411Z,0.80
2022-11-04T13:06:32.198Z,5.47
2022-11-04T13:09:09.700Z,0.87
2022-11-04T13:11:48.881Z,0.80
2022-11-04T13:14:30.825Z,1.17
2022-11-04T13:17:04.047Z,3.03
2022-11-04T13:19:42.181Z,0.97
2022-11-04T13:22:19.805Z,0.70
2022-11-04T13:24:54.478Z,1.30
2022-11-04T13:27:29.099Z,1.10
2022-11-04T13:30:11.258Z,0.87
2022-11-04T13:32:52.052Z,1.47
2022-11-04T13:35:26.619Z,0.87
2022-11-04T13:38:02.433Z,1.03
2022-11-04T13:40:45.475Z,1.63
2022-11-04T13:43:43.974Z,2.10
2022-11-04T13:46:31.455Z,1.03
2022-11-04T13:49:07.416Z,2.53
2022-11-04T13:51:46.386Z,1.30
2022-11-04T13:54:33.505Z,0.67
2022-11-04T13:57:11.349Z,0.60
2022-11-04T13:59:45.128Z,0.63
2022-11-04T14:02:44.583Z,0.57
2022-11-04T14:05:49.735Z,1.70
2022-11-04T14:08:21.411Z,1.77
2022-11-04T14:11:16.502Z,0.97
2022-11-04T14:14:06.674Z,1.70
2022-11-04T14:16:48.882Z,0.93
2022-11-04T14:20:07.101Z,0.60
2022-11-04T14:22:52.390Z,2.33
2022-11-04T14:25:29.437Z,0.67
2022-11-04T14:28:03.463Z,1.03
2022-11-04T14:30:47.602Z,0.50
2022-11-04T14:33:39.951Z,0.80
2022-11-04T14:36:33.027Z,1.63
2022-11-04T14:39:25.114Z,0.50
2022-11-04T14:42:02.588Z,0.40
2022-11-04T14:44:40.164Z,0.40
2022-11-04T14:47:20.831Z,0.80
2022-11-04T14:49:53.813Z,0.83
2022-11-04T14:52:29.600Z,0.43
2022-11-04T14:55:11.841Z,0.40
2022-11-04T14:57:44.854Z,1.40
2022-11-04T15:00:42.054Z,0.93
2022-11-04T15:06:13.056Z,1.60
2022-11-04T15:08:48.447Z,1.70
2022-11-04T15:11:44.520Z,0.77
2022-11-04T15:14:21.232Z,0.57
2022-11-04T15:16:56.009Z,0.30
2022-11-04T15:19:33.306Z,0.30
2022-11-04T15:22:06.270Z,1.77
2022-11-04T15:24:38.446Z,0.77
2022-11-04T15:27:17.898Z,1.10
2022-11-04T15:29:57.248Z,0.80
2022-11-04T15:32:29.159Z,1.50
2022-11-04T15:35:01.742Z,1.07
2022-11-04T15:37:34.595Z,0.43
2022-11-04T15:40:06.386Z,0.67
2022-11-04T15:42:46.416Z,0.70
2022-11-04T15:45:41.345Z,1.43
2022-11-04T15:48:31.604Z,0.60
2022-11-04T15:51:19.154Z,0.30
2022-11-04T15:53:57.653Z,0.67
2022-11-04T15:56:31.953Z,0.50
2022-11-04T15:59:05.511Z,1.73
2022-11-04T16:01:37.948Z,2.30
2022-11-04T16:04:10.158Z,1.37
2022-11-04T16:06:43.135Z,1.03
2022-11-04T16:09:29.428Z,0.93
2022-11-04T16:12:19.032Z,2.20
2022-11-04T16:14:57.818Z,0.60
2022-11-04T16:17:30.991Z,0.60
2022-11-04T16:20:04.891Z,0.70
2022-11-04T16:22:39.601Z,1.20
2022-11-04T16:25:12.795Z,2.30
2022-11-04T16:27:43.728Z,0.73
2022-11-04T16:30:22.566Z,2.23
2022-11-04T16:32:55.659Z,3.43
2022-11-04T16:35:28.457Z,0.70
2022-11-04T16:38:03.527Z,1.27
2022-11-04T16:40:37.883Z,1.17
2022-11-04T16:43:09.341Z,0.97
2022-11-04T16:45:43.189Z,2.27
2022-11-04T16:48:18.389Z,3.87
2022-11-04T16:50:50.098Z,0.93
2022-11-04T16:53:22.332Z,1.27
2022-11-04T16:56:01.875Z,1.53
2022-11-04T16:58:35.210Z,1.00
2022-11-04T17:01:09.181Z,1.10
2022-11-04T17:03:40.507Z,0.73
2022-11-04T17:06:12.269Z,2.00
2022-11-04T17:08:44.408Z,1.37
2022-11-04T17:11:15.890Z,1.50
2022-11-04T17:13:46.985Z,3.03
2022-11-04T17:16:21.238Z,1.73
2022-11-04T17:18:52.357Z,2.83
2022-11-04T17:21:25.143Z,1.33
2022-11-04T17:23:57.216Z,1.63
2022-11-04T17:26:28.394Z,1.07
2022-11-04T17:29:00.654Z,0.70
2022-11-04T17:31:33.907Z,0.90
2022-11-04T17:34:05.043Z,0.83
2022-11-04T17:36:36.677Z,0.60
2022-11-04T17:39:08.599Z,2.03
2022-11-04T17:41:57.026Z,0.83
2022-11-04T17:44:28.249Z,1.70
2022-11-04T17:47:03.027Z,2.80
2022-11-04T17:49:34.106Z,0.73
2022-11-04T17:52:05.309Z,2.57
2022-11-04T17:54:36.454Z,1.13
2022-11-04T17:57:09.103Z,1.07
2022-11-04T17:59:40.157Z,2.13
2022-11-04T18:02:14.188Z,0.80
2022-11-04T18:04:45.448Z,2.93
2022-11-04T18:07:16.675Z,1.57
2022-11-04T18:09:48.220Z,2.00
2022-11-04T18:12:36.018Z,2.77
2022-11-04T18:15:07.345Z,1.60
2022-11-04T18:17:46.234Z,2.40
2022-11-04T18:20:19.466Z,1.00
2022-11-04T18:22:50.540Z,1.73
2022-11-04T18:25:22.523Z,3.27
2022-11-04T18:27:53.666Z,1.40
2022-11-04T18:30:25.271Z,0.77
2022-11-04T18:32:58.852Z,1.37
2022-11-04T18:35:30.046Z,1.00
2022-11-04T18:38:01.110Z,1.00
2022-11-04T18:40:32.674Z,1.43
2022-11-04T18:43:08.946Z,3.03
2022-11-04T18:45:40.824Z,1.57
2022-11-04T18:48:13.908Z,0.50
2022-11-04T18:50:44.973Z,0.77
2022-11-04T18:53:17.027Z,0.60
2022-11-04T18:55:48.102Z,2.60
2022-11-04T18:58:19.285Z,1.47
2022-11-04T19:00:50.374Z,2.57
2022-11-04T19:03:24.502Z,0.83
2022-11-04T19:05:56.154Z,1.73
2022-11-04T19:08:27.123Z,0.27
2022-11-04T19:11:01.656Z,1.23
2022-11-04T19:13:33.115Z,1.53
2022-11-04T19:16:08.905Z,0.70
2022-11-04T19:18:43.051Z,0.90
2022-11-04T19:21:16.223Z,0.87
2022-11-04T19:23:51.001Z,1.63
2022-11-04T19:26:24.916Z,2.30
2022-11-04T19:28:56.282Z,2.10
2022-11-04T19:31:28.955Z,1.77
2022-11-04T19:34:05.937Z,0.83
2022-11-04T19:36:39.232Z,2.90
2022-11-04T19:39:10.545Z,1.70
2022-11-04T19:41:58.463Z,1.37
2022-11-04T19:44:29.340Z,1.27
2022-11-04T19:47:00.218Z,0.77
2022-11-04T19:49:33.312Z,1.93
2022-11-04T19:52:05.035Z,1.43
2022-11-04T19:54:36.662Z,1.40
2022-11-04T19:57:07.995Z,0.53
2022-11-04T19:59:38.993Z,0.57
2022-11-04T20:02:12.567Z,0.93
2022-11-04T20:04:47.167Z,1.00
2022-11-04T20:07:18.600Z,0.60
2022-11-04T20:09:50.742Z,1.43
2022-11-04T20:12:38.395Z,1.80
2022-11-04T20:15:11.086Z,0.77
2022-11-04T20:17:43.016Z,1.43
2022-11-04T20:20:16.649Z,5.03
2022-11-04T20:22:49.300Z,1.97
2022-11-04T20:25:20.933Z,1.83
2022-11-04T20:27:52.468Z,1.63
2022-11-04T20:30:24.811Z,0.47
2022-11-04T20:32:57.240Z,0.87
2022-11-04T20:35:30.589Z,0.43
2022-11-04T20:38:02.085Z,0.30
2022-11-04T20:40:34.158Z,1.70
2022-11-04T20:43:05.992Z,0.97
2022-11-04T20:45:40.255Z,1.40
2022-11-04T20:48:11.611Z,2.23
2022-11-04T20:50:45.052Z,4.00
2022-11-04T20:53:16.592Z,2.00
2022-11-04T20:55:48.278Z,0.43
2022-11-04T20:58:20.255Z,0.90
2022-11-04T21:00:51.479Z,2.63
2022-11-04T21:03:23.307Z,0.60
2022-11-04T21:05:56.467Z,1.17
2022-11-04T21:08:27.769Z,0.30
2022-11-04T21:10:59.585Z,1.60
2022-11-04T21:13:30.692Z,2.00
2022-11-04T21:16:02.911Z,0.60
2022-11-04T21:18:34.901Z,3.20
2022-11-04T21:21:11.831Z,2.97
2022-11-04T21:23:42.986Z,4.90
2022-11-04T21:26:16.873Z,2.00
2022-11-04T21:28:51.711Z,2.53
2022-11-04T21:31:23.785Z,1.43
2022-11-04T21:33:54.915Z,1.67
2022-11-04T21:36:28.963Z,1.43
2022-11-04T21:39:01.000Z,1.77
2022-11-04T21:41:34.298Z,1.63
2022-11-04T21:44:07.170Z,0.90
2022-11-04T21:46:38.533Z,2.73
2022-11-04T21:49:14.523Z,5.37
2022-11-04T21:51:48.178Z,2.00
2022-11-04T21:54:18.853Z,2.47
2022-11-04T21:56:50.568Z,4.23
2022-11-04T21:59:24.289Z,1.97
2022-11-04T22:01:56.324Z,1.80
2022-11-04T22:04:28.765Z,0.70
2022-11-04T22:07:02.338Z,1.13
2022-11-04T22:09:33.510Z,2.00
2022-11-04T22:12:04.647Z,1.50
2022-11-04T22:14:37.242Z,1.23
2022-11-04T22:17:08.742Z,0.63
2022-11-04T22:19:41.680Z,0.43
2022-11-04T22:22:15.660Z,0.57
2022-11-04T22:25:04.219Z,0.73
2022-11-04T22:27:36.175Z,1.00
2022-11-04T22:30:07.577Z,0.97
2022-11-04T22:32:38.678Z,1.70
2022-11-04T22:35:11.296Z,1.60
2022-11-04T22:37:45.088Z,1.80
2022-11-04T22:40:18.694Z,1.27
2022-11-04T22:42:51.572Z,3.00
2022-11-04T22:45:23.402Z,1.70
2022-11-04T22:47:54.495Z,1.47
2022-11-04T22:50:27.471Z,0.77
2022-11-04T22:53:00.559Z,1.00
2022-11-04T22:55:31.639Z,3.90
2022-11-04T22:58:02.690Z,1.33
2022-11-04T23:00:33.855Z,0.33
2022-11-04T23:03:04.893Z,1.20
2022-11-04T23:05:36.285Z,1.60
2022-11-04T23:08:09.922Z,0.70
2022-11-04T23:10:57.374Z,0.53
2022-11-04T23:13:45.010Z,0.60
2022-11-04T23:16:39.052Z,2.27
2022-11-04T23:19:10.187Z,0.40
2022-11-04T23:22:08.391Z,0.33
2022-11-04T23:24:59.940Z,1.23
2022-11-04T23:27:48.233Z,0.63
2022-11-04T23:30:26.477Z,0.67
2022-11-04T23:32:58.937Z,1.93
2022-11-04T23:35:49.213Z,1.67
2022-11-04T23:38:20.592Z,0.53
2022-11-04T23:41:07.187Z,0.77
2022-11-04T23:43:42.520Z,0.63
2022-11-04T23:46:31.674Z,1.13
2022-11-04T23:49:22.075Z,1.33
2022-11-04T23:52:09.749Z,2.57
2022-11-04T23:54:57.652Z,1.17
2022-11-04T23:57:47.857Z,0.70
